Time;durP1;ratioP1;P1;durP2;ratioP2;P2;SDS_P1;SDS_P2;PMS_P1;PMS_P2;Temp;Humidity;BMP_temperature;BMP_pressure;BME280_temperature;BME280_humidity;BME280_pressure;Samples;Min_cycle;Max_cycle;Signal;HPM_P1;HPM_P2
2022/11/30 00:01:21;;;;;;;58.30;35.90;;;5.30;94.70;;;;;;5037838;28;20060;-59
2022/11/30 00:03:52;;;;;;;62.33;38.60;;;5.30;94.70;;;;;;5036676;28;20343;-57
2022/11/30 00:06:21;;;;;;;65.20;38.70;;;5.30;94.70;;;;;;5035099;28;20083;-58
2022/11/30 00:08:52;;;;;;;65.00;37.42;;;5.30;94.70;;;;;;5035883;28;20442;-57
2022/11/30 00:11:21;;;;;;;61.83;38.75;;;5.20;94.60;;;;;;5037037;28;20044;-59
2022/11/30 00:13:50;;;;;;;60.17;37.28;;;5.20;94.70;;;;;;5035029;28;20041;-59
2022/11/30 00:16:17;;;;;;;67.80;40.45;;;5.20;94.60;;;;;;5034213;28;20116;-59
2022/11/30 00:18:46;;;;;;;62.50;38.10;;;5.20;94.60;;;;;;5036307;28;20089;-60
2022/11/30 00:21:14;;;;;;;60.00;36.00;;;5.20;94.70;;;;;;5045890;28;20355;-60
2022/11/30 00:23:42;;;;;;;55.63;33.13;;;5.20;94.70;;;;;;5035798;28;20248;-60
2022/11/30 00:26:12;;;;;;;56.50;36.03;;;5.20;94.70;;;;;;5043522;28;20464;-59
2022/11/30 00:28:39;;;;;;;56.92;34.67;;;5.20;94.70;;;;;;5055463;28;20342;-59
2022/11/30 00:31:09;;;;;;;53.67;36.00;;;5.20;94.70;;;;;;5045828;28;20132;-58
2022/11/30 00:33:37;;;;;;;49.05;34.35;;;5.30;94.80;;;;;;5037998;28;20449;-55
2022/11/30 00:36:15;;;;;;;56.40;34.25;;;5.20;94.80;;;;;;5037977;28;20500;-56
2022/11/30 00:38:42;;;;;;;52.53;33.08;;;5.30;94.80;;;;;;5034078;28;20072;-54
2022/11/30 00:41:10;;;;;;;51.15;31.50;;;5.20;94.70;;;;;;5045661;28;20025;-57
2022/11/30 00:43:37;;;;;;;47.88;32.00;;;5.30;94.80;;;;;;5055168;28;20041;-54
2022/11/30 00:46:10;;;;;;;54.03;32.33;;;5.20;94.70;;;;;;5048877;28;20112;-56
2022/11/30 00:48:38;;;;;;;49.42;32.78;;;5.20;94.70;;;;;;5035513;28;20052;-57
2022/11/30 00:51:07;;;;;;;51.28;33.85;;;5.30;94.70;;;;;;5044459;28;20083;-55
2022/11/30 00:53:33;;;;;;;49.05;32.70;;;5.30;94.70;;;;;;5037567;28;20025;-55
2022/11/30 00:56:07;;;;;;;48.30;31.92;;;5.30;94.80;;;;;;5052818;28;20088;-57
2022/11/30 00:58:33;;;;;;;48.15;32.30;;;5.30;94.70;;;;;;5054959;28;20033;-57
2022/11/30 01:01:01;;;;;;;48.15;31.92;;;5.30;94.70;;;;;;5052570;28;20476;-57
2022/11/30 01:03:28;;;;;;;48.10;30.50;;;5.20;94.70;;;;;;5034135;28;20435;-57
2022/11/30 01:05:59;;;;;;;48.30;31.13;;;5.30;94.80;;;;;;5044643;28;20033;-57
2022/11/30 01:08:32;;;;;;;53.40;33.50;;;5.30;94.70;;;;;;5037323;28;20037;-56
2022/11/30 01:11:10;;;;;;;46.72;31.38;;;5.30;94.60;;;;;;5052440;28;20082;-55
2022/11/30 01:13:37;;;;;;;48.30;30.13;;;5.30;94.70;;;;;;5054780;28;20033;-57
2022/11/30 01:16:16;;;;;;;45.47;29.60;;;5.30;94.70;;;;;;5053962;28;20029;-57
2022/11/30 01:18:43;;;;;;;50.55;32.08;;;5.30;94.70;;;;;;5054845;28;20025;-58
2022/11/30 01:21:13;;;;;;;49.08;31.88;;;5.30;94.70;;;;;;5041127;28;20033;-58
2022/11/30 01:23:40;;;;;;;56.45;33.22;;;5.30;94.70;;;;;;5034692;28;20022;-58
2022/11/30 01:26:07;;;;;;;52.30;31.75;;;5.30;94.70;;;;;;5041091;28;20037;-58
2022/11/30 01:28:40;;;;;;;50.55;32.35;;;5.30;94.70;;;;;;5017391;28;20039;-58
2022/11/30 01:31:10;;;;;;;49.15;31.88;;;5.40;94.70;;;;;;5033462;28;20132;-58
2022/11/30 01:33:37;;;;;;;;;;;5.30;94.70;;;;;;5034612;28;20148;-59
2022/11/30 01:36:25;;;;;;;47.90;30.67;;;5.40;94.70;;;;;;5047894;28;19913;-59
2022/11/30 01:38:56;;;;;;;49.65;31.48;;;5.40;94.70;;;;;;5054198;28;20048;-59
2022/11/30 01:41:31;;;;;;;46.35;31.33;;;5.40;94.70;;;;;;5050885;28;20369;-59
2022/11/30 01:44:16;;;;;;;50.20;32.85;;;5.40;94.70;;;;;;5016908;28;20021;-56
2022/11/30 01:47:08;;;;;;;50.88;33.67;;;5.40;94.70;;;;;;5036888;28;20030;-57
2022/11/30 01:49:57;;;;;;;47.83;32.08;;;5.40;94.70;;;;;;5033971;28;20029;-57
2022/11/30 01:52:28;;;;;;;48.13;32.22;;;5.30;94.60;;;;;;5034043;28;20096;-57
2022/11/30 01:55:10;;;;;;;52.20;32.92;;;5.30;94.70;;;;;;5039035;28;20029;-56
2022/11/30 01:57:55;;;;;;;46.08;30.05;;;5.30;94.70;;;;;;5053736;28;20032;-56
2022/11/30 02:00:22;;;;;;;47.35;31.55;;;5.30;94.60;;;;;;5049701;28;20049;-55
2022/11/30 02:03:05;;;;;;;48.42;33.13;;;5.30;94.60;;;;;;5041692;28;20044;-54
2022/11/30 02:05:37;;;;;;;45.83;30.90;;;5.30;94.70;;;;;;5053836;28;20529;-54
2022/11/30 02:08:07;;;;;;;53.60;32.13;;;5.30;94.60;;;;;;5044454;28;20037;-53
2022/11/30 02:10:43;;;;;;;51.95;32.45;;;5.30;94.60;;;;;;5042286;28;20037;-55
2022/11/30 02:13:33;;;;;;;50.22;31.60;;;5.30;94.60;;;;;;5003586;28;20029;-53
2022/11/30 02:16:19;;;;;;;48.78;31.70;;;5.40;94.70;;;;;;5053270;28;20033;-52
2022/11/30 02:19:09;;;;;;;49.60;33.03;;;5.30;94.60;;;;;;5035004;28;20100;-53
2022/11/30 02:22:26;;;;;;;45.17;30.73;;;5.30;94.60;;;;;;5051573;28;20029;-54
2022/11/30 02:25:35;;;;;;;44.60;30.55;;;5.30;94.60;;;;;;5012660;28;20033;-53
2022/11/30 02:28:59;;;;;;;47.43;31.93;;;5.40;94.60;;;;;;5033296;28;20037;-54
2022/11/30 02:31:34;;;;;;;47.58;30.02;;;5.40;94.70;;;;;;4952028;29;20043;-52
2022/11/30 02:34:06;;;;;;;45.53;29.17;;;5.40;94.60;;;;;;4949958;28;20047;-51
2022/11/30 20:53:47;;;;;;;78.20;42.92;;;5.40;91.70;;;;;;5031193;28;20072;-43
2022/11/30 20:56:14;;;;;;;88.28;49.83;;;5.40;91.70;;;;;;5015368;28;20034;-42
2022/11/30 20:58:40;;;;;;;84.50;48.72;;;5.40;91.80;;;;;;5025777;28;22674;-42
2022/11/30 21:01:17;;;;;;;91.88;51.50;;;5.40;91.90;;;;;;5027835;28;20052;-44
2022/11/30 21:03:44;;;;;;;101.22;52.67;;;5.40;92.00;;;;;;5020254;28;20037;-45
2022/11/30 21:06:11;;;;;;;99.28;54.83;;;5.40;92.00;;;;;;5029832;28;20168;-47
2022/11/30 21:08:41;;;;;;;99.68;55.97;;;5.40;92.10;;;;;;5013218;28;20041;-45
2022/11/30 21:11:29;;;;;;;104.88;55.42;;;5.40;92.10;;;;;;5008909;28;20041;-43
2022/11/30 21:13:56;;;;;;;100.75;51.65;;;5.40;92.20;;;;;;5023080;28;20059;-46
2022/11/30 21:16:25;;;;;;;101.85;56.88;;;5.40;92.20;;;;;;5021716;28;20544;-44
2022/11/30 21:18:55;;;;;;;98.65;55.03;;;5.50;92.10;;;;;;5011205;28;20114;-43
2022/11/30 21:21:23;;;;;;;95.25;49.83;;;5.40;92.10;;;;;;5026504;28;20041;-45
2022/11/30 21:23:50;;;;;;;89.13;46.05;;;5.40;92.00;;;;;;5022707;28;20038;-46
2022/11/30 21:26:25;;;;;;;85.25;47.38;;;5.40;92.00;;;;;;5025414;28;20014;-44
2022/11/30 21:28:55;;;;;;;92.05;49.72;;;5.40;91.90;;;;;;5029795;28;20037;-48
2022/11/30 21:31:22;;;;;;;85.40;47.40;;;5.40;91.80;;;;;;5030046;28;20061;-43
2022/11/30 21:33:49;;;;;;;86.82;46.78;;;5.40;91.80;;;;;;5013777;28;20041;-44
2022/11/30 21:36:18;;;;;;;82.35;47.40;;;5.40;91.70;;;;;;5033661;28;20122;-43
2022/11/30 21:38:45;;;;;;;93.10;48.47;;;5.40;91.80;;;;;;5033583;28;20025;-43
2022/11/30 21:41:12;;;;;;;87.18;49.70;;;5.40;91.80;;;;;;5032339;28;20400;-44
2022/11/30 21:43:40;;;;;;;93.47;49.05;;;5.50;91.80;;;;;;5032834;28;20025;-43
2022/11/30 21:46:11;;;;;;;95.35;47.40;;;5.60;91.80;;;;;;5032176;28;20684;-46
2022/11/30 21:48:40;;;;;;;89.80;50.13;;;5.50;91.70;;;;;;5032133;28;20045;-44
2022/11/30 21:51:19;;;;;;;92.10;48.85;;;5.50;91.60;;;;;;5026665;28;20037;-47
2022/11/30 21:53:48;;;;;;;91.55;48.45;;;5.50;91.70;;;;;;5034100;28;20104;-43
2022/11/30 21:56:18;;;;;;;88.47;47.92;;;5.50;91.60;;;;;;5053614;28;20041;-44
2022/11/30 21:58:46;;;;;;;;;;;5.40;91.70;;;;;;5039136;28;20040;-43
2022/11/30 22:01:38;;;;;;;94.93;48.72;;;5.50;91.80;;;;;;5059444;28;19908;-46
2022/11/30 22:04:07;;;;;;;102.55;49.88;;;5.50;91.80;;;;;;5053171;28;20033;-42
2022/11/30 22:06:37;;;;;;;94.78;49.65;;;5.50;91.80;;;;;;5045401;28;20056;-44
2022/11/30 22:09:09;;;;;;;83.97;47.08;;;5.50;91.80;;;;;;5050312;28;20033;-43
2022/11/30 22:11:38;;;;;;;102.05;51.25;;;5.50;91.90;;;;;;5046753;28;20036;-44
2022/11/30 22:14:06;;;;;;;93.38;49.78;;;5.50;91.80;;;;;;5053800;28;20021;-42
2022/11/30 22:16:33;;;;;;;95.32;48.20;;;5.50;91.90;;;;;;5053566;28;20100;-44
2022/11/30 22:19:01;;;;;;;101.22;50.70;;;5.50;91.90;;;;;;5037192;28;20036;-46
2022/11/30 22:21:29;;;;;;;91.40;48.15;;;5.50;92.00;;;;;;5048354;28;20057;-43
2022/11/30 22:24:05;;;;;;;84.85;46.33;;;5.50;91.90;;;;;;5033977;28;20024;-43
2022/11/30 22:26:49;;;;;;;87.43;47.70;;;5.50;92.10;;;;;;5032927;28;20558;-43
2022/11/30 22:29:18;;;;;;;92.38;49.42;;;5.50;92.10;;;;;;5049852;28;20473;-42
2022/11/30 22:31:48;;;;;;;87.88;47.08;;;5.50;92.20;;;;;;5037598;28;20407;-46
2022/11/30 22:34:15;;;;;;;89.28;48.92;;;5.50;92.10;;;;;;5048687;28;20037;-42
2022/11/30 22:36:45;;;;;;;93.32;48.80;;;5.50;92.00;;;;;;5050677;28;20043;-42
2022/11/30 22:39:21;;;;;;;88.10;47.70;;;5.50;92.00;;;;;;5036889;28;20597;-45
2022/11/30 22:41:49;;;;;;;85.10;49.40;;;5.50;92.00;;;;;;5050756;28;20025;-47
2022/11/30 22:44:17;;;;;;;86.55;45.55;;;5.50;92.00;;;;;;5045565;28;20044;-47
2022/11/30 22:46:44;;;;;;;87.10;48.25;;;5.50;92.10;;;;;;5035777;28;20029;-47
2022/11/30 22:49:13;;;;;;;93.53;46.22;;;5.50;92.00;;;;;;5016380;28;20033;-46
2022/11/30 22:51:41;;;;;;;88.32;46.92;;;5.50;92.00;;;;;;5033514;28;20079;-43
2022/11/30 22:54:08;;;;;;;80.50;47.13;;;5.50;91.90;;;;;;5037648;28;20033;-46
2022/11/30 22:56:40;;;;;;;89.43;49.83;;;5.50;91.80;;;;;;5049927;28;20078;-44
2022/11/30 22:59:10;;;;;;;84.40;46.03;;;5.50;91.90;;;;;;5049958;28;20037;-46
2022/11/30 23:01:44;;;;;;;84.00;47.72;;;5.50;91.70;;;;;;5052001;28;20103;-45
2022/11/30 23:04:15;;;;;;;87.88;49.10;;;5.50;91.80;;;;;;5025801;28;20025;-46
2022/11/30 23:06:43;;;;;;;84.03;46.63;;;5.50;91.60;;;;;;5035449;28;20025;-42
2022/11/30 23:09:21;;;;;;;84.50;45.72;;;5.50;91.60;;;;;;5046963;28;20021;-47
2022/11/30 23:11:48;;;;;;;80.93;47.22;;;5.50;91.70;;;;;;5032035;28;20350;-44
2022/11/30 23:14:19;;;;;;;84.55;46.13;;;5.50;91.70;;;;;;5032919;28;20099;-43
2022/11/30 23:16:46;;;;;;;84.38;46.28;;;5.50;91.60;;;;;;5038403;28;20071;-44
2022/11/30 23:19:13;;;;;;;79.63;45.83;;;5.50;91.80;;;;;;5035728;28;20112;-44
2022/11/30 23:21:44;;;;;;;77.60;42.80;;;5.50;91.60;;;;;;5049618;28;20036;-42
2022/11/30 23:24:18;;;;;;;82.30;45.40;;;5.50;91.60;;;;;;5034216;28;20025;-43
2022/11/30 23:26:46;;;;;;;83.90;44.35;;;5.50;91.60;;;;;;5035639;28;20020;-47
2022/11/30 23:29:14;;;;;;;76.95;42.97;;;5.50;91.60;;;;;;5034451;28;20032;-44
2022/11/30 23:31:43;;;;;;;76.93;42.85;;;5.50;91.70;;;;;;5048773;28;20108;-45
2022/11/30 23:34:14;;;;;;;74.78;40.85;;;5.50;91.80;;;;;;5041690;28;20037;-44
2022/11/30 23:36:41;;;;;;;73.72;43.22;;;5.50;91.80;;;;;;5032589;28;20544;-46
2022/11/30 23:39:14;;;;;;;73.90;42.88;;;5.50;91.70;;;;;;5026549;28;20033;-43
2022/11/30 23:41:41;;;;;;;70.13;40.60;;;5.50;91.70;;;;;;5032758;28;20018;-42
2022/11/30 23:44:09;;;;;;;75.75;43.85;;;5.50;91.70;;;;;;5050322;28;20024;-44
2022/11/30 23:46:36;;;;;;;68.07;40.28;;;5.50;91.60;;;;;;5054543;28;20044;-44
2022/11/30 23:49:03;;;;;;;76.50;41.83;;;5.50;91.50;;;;;;5047244;28;20044;-43
2022/11/30 23:51:29;;;;;;;78.90;43.25;;;5.50;91.50;;;;;;5039131;28;20143;-43
2022/11/30 23:53:55;;;;;;;82.63;42.42;;;5.50;91.70;;;;;;5038868;28;20075;-46
2022/11/30 23:56:25;;;;;;;79.30;42.88;;;5.50;91.80;;;;;;5037844;28;20118;-43
2022/11/30 23:58:51;;;;;;;;;;;5.50;91.90;;;;;;5055891;28;20520;-44
